Time;durP1;ratioP1;P1;durP2;ratioP2;P2;SDS_P1;SDS_P2;PMS_P1;PMS_P2;Temp;Humidity;BMP_temperature;BMP_pressure;BME280_temperature;BME280_humidity;BME280_pressure;Samples;Min_cycle;Max_cycle;Signal;HPM_P1;HPM_P2
2022/08/02 00:07:33;;;;;;;;;;;;;;;;;;21261057;27;19923;-64
2022/08/02 00:17:35;;;;;;;;;;;;;;;;;;21259998;27;19923;-62
2022/08/02 00:27:37;;;;;;;;;;;;;;;;;;21259515;27;20039;-60
2022/08/02 00:37:39;;;;;;;;;;;;;;;;;;21274005;27;19930;-60
2022/08/02 00:47:41;;;;;;;;;;;;;;;;;;21258467;27;20406;-65
2022/08/02 00:57:42;;;;;;;;;;;;;;;;;;21259913;27;19976;-63
2022/08/02 01:07:44;;;;;;;;;;;;;;;;;;21255826;27;19969;-62
2022/08/02 01:17:46;;;;;;;;;;;;;;;;;;21256270;27;19977;-60
2022/08/02 01:27:49;;;;;;;;;;;;;;;;;;21254533;27;19928;-58
2022/08/02 01:37:53;;;;;;;;;;;;;;;;;;21253478;27;19923;-65
2022/08/02 01:47:58;;;;;;;;;;;;;;;;;;21254557;27;19923;-63
2022/08/02 01:58:00;;;;;;;;;;;;;;;;;;21254349;27;20018;-60
2022/08/02 02:08:02;;;;;;;;;;;;;;;;;;21251638;27;19923;-60
2022/08/02 02:18:10;;;;;;;;;;;;;;;;;;21250760;27;19946;-60
2022/08/02 02:28:16;;;;;;;;;;;;;;;;;;21251291;27;20109;-64
2022/08/02 02:38:18;;;;;;;;;;;;;;;;;;21249510;27;19934;-60
2022/08/02 02:48:21;;;;;;;;;;;;;;;;;;21248907;27;19975;-63
2022/08/02 02:58:24;;;;;;;;;;;;;;;;;;21248703;27;20394;-63
2022/08/02 03:08:27;;;;;;;;;;;;;;;;;;21247674;28;20006;-62
2022/08/02 03:18:30;;;;;;;;;;;;;;;;;;21248353;28;19931;-66
2022/08/02 03:28:33;;;;;;;;;;;;;;;;;;21250704;27;19946;-60
2022/08/02 03:38:35;;;;;;;;;;;;;;;;;;21263881;27;19935;-65
2022/08/02 03:48:37;;;;;;;;;;;;;;;;;;21263009;27;19928;-64
2022/08/02 03:58:39;;;;;;;;;;;;;;;;;;21263443;27;20475;-64
2022/08/02 04:08:41;;;;;;;;;;;;;;;;;;21264878;27;20398;-58
2022/08/02 04:18:43;;;;;;;;;;;;;;;;;;21262905;27;20019;-54
2022/08/02 04:28:46;;;;;;;;;;;;;;;;;;21260164;27;19924;-54
2022/08/02 04:38:48;;;;;;;;;;;;;;;;;;21259496;27;19931;-54
2022/08/02 04:48:53;;;;;;;;;;;;;;;;;;21258649;27;19948;-63
2022/08/02 04:58:55;;;;;;;;;;;;;;;;;;21257097;27;19923;-62
2022/08/02 05:08:57;;;;;;;;;;;;;;;;;;21256207;27;19927;-64
2022/08/02 05:18:59;;;;;;;;;;;;;;;;;;21255866;27;20463;-61
2022/08/02 05:29:03;;;;;;;;;;;;;;;;;;21254740;27;19931;-60
2022/08/02 05:39:05;;;;;;;;;;;;;;;;;;21253915;27;19927;-64
2022/08/02 05:49:07;;;;;;;;;;;;;;;;;;21252702;27;19927;-59
2022/08/02 05:59:09;;;;;;;;;;;;;;;;;;21252447;27;20028;-58
2022/08/02 06:09:11;;;;;;;;;;;;;;;;;;21251876;27;20371;-61
2022/08/02 06:19:13;;;;;;;;;;;;;;;;;;21250955;27;20337;-65
2022/08/02 06:29:15;;;;;;;;;;;;;;;;;;21250531;27;20018;-62
2022/08/02 06:39:17;;;;;;;;;;;;;;;;;;21250376;27;20335;-61
2022/08/02 06:49:19;;;;;;;;;;;;;;;;;;21248970;27;19923;-63
2022/08/02 06:59:21;;;;;;;;;;;;;;;;;;21249621;27;20023;-60
2022/08/02 07:09:23;;;;;;;;;;;;;;;;;;21262006;27;19930;-61
2022/08/02 07:19:25;;;;;;;;;;;;;;;;;;21266890;27;19924;-58
2022/08/02 07:29:27;;;;;;;;;;;;;;;;;;21265114;27;20433;-57
2022/08/02 07:39:29;;;;;;;;;;;;;;;;;;21265027;27;20367;-60
2022/08/02 07:49:31;;;;;;;;;;;;;;;;;;21262750;27;19924;-57
2022/08/02 07:59:34;;;;;;;;;;;;;;;;;;21262160;27;19924;-63
2022/08/02 08:09:40;;;;;;;;;;;;;;;;;;21262407;27;19930;-63
2022/08/02 08:19:42;;;;;;;;;;;;;;;;;;21261076;27;19923;-63
2022/08/02 08:29:44;;;;;;;;;;;;;;;;;;21259878;27;19963;-65
2022/08/02 08:39:46;;;;;;;;;;;;;;;;;;21258350;27;20064;-66
2022/08/02 08:49:48;;;;;;;;;;;;;;;;;;21258924;27;19934;-55
2022/08/02 08:59:50;;;;;;;;;;;;;;;;;;21256838;27;19930;-66
2022/08/02 09:09:52;;;;;;;;;;;;;;;;;;21255741;27;20287;-62
2022/08/02 09:19:53;;;;;;;;;;;;;;;;;;21254508;27;19924;-58
2022/08/02 09:29:56;;;;;;;;;;;;;;;;;;21254506;27;19962;-59
2022/08/02 09:40:02;;;;;;;;;;;;;;;;;;21253540;27;19928;-62
2022/08/02 09:50:03;;;;;;;;;;;;;;;;;;21253924;27;19923;-63
2022/08/02 10:00:09;;;;;;;;;;;;;;;;;;21252187;27;20386;-63
2022/08/02 10:10:11;;;;;;;;;;;;;;;;;;21234058;27;19930;-67
2022/08/02 10:20:13;;;;;;;;;;;;;;;;;;21250647;27;19927;-62
2022/08/02 10:30:15;;;;;;;;;;;;;;;;;;21253354;27;19930;-66
2022/08/02 10:40:22;;;;;;;;;;;;;;;;;;21256671;27;19931;-66
2022/08/02 10:50:26;;;;;;;;;;;;;;;;;;21253399;27;20199;-61
2022/08/02 11:00:28;;;;;;;;;;;;;;;;;;21248063;27;19968;-58
2022/08/02 11:10:30;;;;;;;;;;;;;;;;;;21247388;28;19970;-62
2022/08/02 11:20:33;;;;;;;;;;;;;;;;;;21247290;28;19924;-66
2022/08/02 11:30:34;;;;;;;;;;;;;;;;;;21247100;28;19923;-56
2022/08/02 11:40:37;;;;;;;;;;;;;;;;;;21248439;28;19930;-56
2022/08/02 11:50:39;;;;;;;;;;;;;;;;;;21255497;27;20278;-65
2022/08/02 12:00:45;;;;;;;;;;;;;;;;;;21265500;27;19930;-57
2022/08/02 12:10:47;;;;;;;;;;;;;;;;;;21260727;27;19924;-64
2022/08/02 12:20:50;;;;;;;;;;;;;;;;;;21259669;27;20290;-63
2022/08/02 12:30:52;;;;;;;;;;;;;;;;;;21262047;27;20002;-66
2022/08/02 12:40:53;;;;;;;;;;;;;;;;;;21258769;27;19998;-63
2022/08/02 12:50:55;;;;;;;;;;;;;;;;;;21259028;27;19931;-64
2022/08/02 13:00:57;;;;;;;;;;;;;;;;;;21255332;27;20003;-63
2022/08/02 13:10:59;;;;;;;;;;;;;;;;;;21256129;27;19976;-65
2022/08/02 13:21:04;;;;;;;;;;;;;;;;;;21256790;27;19930;-66
2022/08/02 13:31:06;;;;;;;;;;;;;;;;;;21256173;27;20288;-63
2022/08/02 13:41:08;;;;;;;;;;;;;;;;;;21256660;27;19980;-66
2022/08/02 13:51:11;;;;;;;;;;;;;;;;;;21253849;27;19977;-62
2022/08/02 14:01:15;;;;;;;;;;;;;;;;;;21253372;27;20338;-64
2022/08/02 14:11:16;;;;;;;;;;;;;;;;;;21251679;27;19923;-64
2022/08/02 14:21:19;;;;;;;;;;;;;;;;;;21249965;27;19923;-65
2022/08/02 14:31:21;;;;;;;;;;;;;;;;;;21250208;27;20283;-55
2022/08/02 14:41:23;;;;;;;;;;;;;;;;;;21250015;27;20007;-62
2022/08/02 14:51:25;;;;;;;;;;;;;;;;;;21249036;27;19968;-60
2022/08/02 15:01:27;;;;;;;;;;;;;;;;;;21250572;27;19968;-64
2022/08/02 15:11:28;;;;;;;;;;;;;;;;;;21248043;28;20209;-64
2022/08/02 15:21:30;;;;;;;;;;;;;;;;;;21247758;28;19976;-65
2022/08/02 15:31:32;;;;;;;;;;;;;;;;;;21263648;27;19930;-63
2022/08/02 15:41:34;;;;;;;;;;;;;;;;;;21263577;27;20300;-66
2022/08/02 15:51:36;;;;;;;;;;;;;;;;;;21262470;27;19924;-65
2022/08/02 16:01:38;;;;;;;;;;;;;;;;;;21261243;27;20217;-65
2022/08/02 16:11:40;;;;;;;;;;;;;;;;;;21259860;27;19924;-62
2022/08/02 16:21:42;;;;;;;;;;;;;;;;;;21259712;27;19970;-65
2022/08/02 16:31:45;;;;;;;;;;;;;;;;;;21258374;27;19923;-65
2022/08/02 16:41:47;;;;;;;;;;;;;;;;;;21257787;27;19924;-65
2022/08/02 16:51:51;;;;;;;;;;;;;;;;;;21256887;27;19927;-62
2022/08/02 17:01:53;;;;;;;;;;;;;;;;;;21257530;27;19923;-66
2022/08/02 17:11:54;;;;;;;;;;;;;;;;;;21256557;27;19923;-61
2022/08/02 17:21:56;;;;;;;;;;;;;;;;;;21255967;27;20380;-64
2022/08/02 17:31:58;;;;;;;;;;;;;;;;;;21254767;27;19935;-64
2022/08/02 17:42:00;;;;;;;;;;;;;;;;;;21252733;27;19924;-67
2022/08/02 17:52:02;;;;;;;;;;;;;;;;;;21252198;27;20368;-64
2022/08/02 18:02:04;;;;;;;;;;;;;;;;;;21251811;27;19923;-56
2022/08/02 18:12:05;;;;;;;;;;;;;;;;;;21250545;27;20272;-65
2022/08/02 18:22:07;;;;;;;;;;;;;;;;;;21249487;27;19927;-58
2022/08/02 18:32:10;;;;;;;;;;;;;;;;;;21249475;27;19927;-64
2022/08/02 18:42:11;;;;;;;;;;;;;;;;;;21249421;27;19924;-59
2022/08/02 18:52:13;;;;;;;;;;;;;;;;;;21249668;27;19923;-57
2022/08/02 19:02:15;;;;;;;;;;;;;;;;;;21248660;27;19924;-56
2022/08/02 19:12:16;;;;;;;;;;;;;;;;;;21250137;28;20387;-58
2022/08/02 19:22:18;;;;;;;;;;;;;;;;;;21249842;28;19972;-59
2022/08/02 19:32:20;;;;;;;;;;;;;;;;;;21248267;28;20317;-57
2022/08/02 19:42:22;;;;;;;;;;;;;;;;;;21247199;28;20299;-63
2022/08/02 19:52:25;;;;;;;;;;;;;;;;;;21245905;28;20010;-55
2022/08/02 20:02:27;;;;;;;;;;;;;;;;;;21247014;28;19924;-64
2022/08/02 20:12:29;;;;;;;;;;;;;;;;;;21254203;27;19934;-57
2022/08/02 20:22:31;;;;;;;;;;;;;;;;;;21262674;27;19927;-62
2022/08/02 20:32:33;;;;;;;;;;;;;;;;;;21260356;27;20395;-60
2022/08/02 20:42:37;;;;;;;;;;;;;;;;;;21259889;27;19930;-59
2022/08/02 20:52:39;;;;;;;;;;;;;;;;;;21259225;27;19923;-60
2022/08/02 21:02:41;;;;;;;;;;;;;;;;;;21257768;27;19924;-59
2022/08/02 21:12:43;;;;;;;;;;;;;;;;;;21256786;27;19930;-67
2022/08/02 21:22:46;;;;;;;;;;;;;;;;;;21254727;27;19968;-58
2022/08/02 21:32:49;;;;;;;;;;;;;;;;;;21256140;27;20014;-55
2022/08/02 21:42:51;;;;;;;;;;;;;;;;;;21255861;27;19953;-54
2022/08/02 21:52:52;;;;;;;;;;;;;;;;;;21254467;27;19923;-64
2022/08/02 22:02:54;;;;;;;;;;;;;;;;;;21252448;27;19977;-55
2022/08/02 22:12:56;;;;;;;;;;;;;;;;;;21250966;27;20063;-54
2022/08/02 22:22:59;;;;;;;;;;;;;;;;;;21251668;27;19934;-56
2022/08/02 22:43:21;;;;;;;;;;;;;;;;;;21250369;27;19962;-57
2022/08/02 22:53:23;;;;;;;;;;;;;;;;;;21250065;27;20018;-56
2022/08/02 23:03:24;;;;;;;;;;;;;;;;;;21249412;27;19931;-64
2022/08/02 23:13:26;;;;;;;;;;;;;;;;;;21248022;28;19976;-56
2022/08/02 23:23:28;;;;;;;;;;;;;;;;;;21248743;28;19961;-55
2022/08/02 23:33:30;;;;;;;;;;;;;;;;;;21248448;28;20383;-66
2022/08/02 23:43:31;;;;;;;;;;;;;;;;;;21246818;27;20074;-58
2022/08/02 23:53:33;;;;;;;;;;;;;;;;;;21262851;27;19927;-56
